Fran Orsic

Scout - Dinamo Zagreb
2 Mär 2028
Donnerstag
Verarbeitung

Persönlichkeit

Anpassungsfähigkeit (16) Ehrgeiz (13) Kontroverse (17) Loyalität (11) Druck (15) Professionalität (11) Fairness (15) Temperament (14)

Profil

Trainerstil Demokratisch
Lizenz Kontinentale B
Entschlossenheit 10
Menschenführung 14
Motivation 5
Disziplin 5
Arbeitszufriedenheit
100%
Ermüdung
0%
Rolle Scout
Gehalt 113.0K p/W
Vertrag 14.03.2028

Leistung

Verhalten Gut
Trainingseffektivität
46%
Spielerentwicklung
55%
Verletzungsprävention
55%
Taktische Umsetzung
25%

Letzte Ereignisse

Vertragsverhandlung begonnen jetzt
Vertragsverhandlung begonnen 7T her
Vertragsverhandlung begonnen 7T her
Vertragsverhandlung begonnen 7T her
Vertragsverhandlung begonnen 7T her
Vertragsverhandlung begonnen 7T her
Vertragsverhandlung begonnen 7T her
Vertragsverhandlung begonnen 7T her

Aktuell beobachtet

60
Spieler Verein Status Fähigkeit Vertrauen Beobachtet Zuletzt beobachtet Letzte Stimme
Bruno Unušić Rudes Verloren 103 / 98 83% 1 07.01.2028 -
Ivan Delić Dugopolje Aktiv 104 / 93 83% 1 04.01.2028 Befürworten
Mateo Stanisic Zadar Verloren 130 / 135 83% 1 01.01.2028 -
Ferreirinha Zenit Aktiv 129 / 131 40% 2 29.08.2027 -
Adama Goïta Remo Stars Aktiv 100 / 98 40% 1 29.08.2027 -
Mahmoud Al Hashmi CSKA Moscow Aktiv 128 / 133 40% 1 28.08.2027 -
Rayan Bournemouth Aktiv 143 / 138 40% 1 28.08.2027 -
Agustín Anello Spartak Moscow Aktiv 125 / 135 40% 1 27.08.2027 -
Luca Martínez Dupuy Godoy Cruz Aktiv 124 / 121 40% 2 26.08.2027 -
Edwuin Cetré Estudiantes Aktiv 133 / 114 40% 1 26.08.2027 -
Keinan Davis Udinese Aktiv 133 / 139 40% 2 20.08.2027 -
Vitinha Genoa Aktiv 140 / 143 40% 1 20.08.2027 -
Lorenzo Colombo Genoa Aktiv 138 / 148 40% 1 10.08.2027 -
Dom Ballard Leyton Orient Aktiv 121 / 129 40% 2 05.08.2027 -
Stiven Shpendi Empoli Aktiv 121 / 130 40% 1 05.08.2027 -
Tyrese Campbell Sheffield United Aktiv 137 / 122 40% 1 05.08.2027 -
Sam Bell Bristol City Aktiv 123 / 131 40% 2 03.08.2027 -
Andri Guðjohnsen Blackburn Rovers Aktiv 127 / 134 40% 1 03.08.2027 -
Tammer Kumar West Bromwich Albion Aktiv 125 / 115 40% 1 03.08.2027 -
Rocco Vata Watford Aktiv 122 / 133 40% 2 29.07.2027 -
Richard Koné Queens Park Rangers Aktiv 129 / 129 40% 1 29.07.2027 -
Victor Torp Coventry City Aktiv 135 / 137 40% 1 23.07.2027 -
Aaron Connolly Leyton Orient Aktiv 129 / 125 40% 1 22.07.2027 -
Akor Adams Venezia Aktiv 146 / 140 40% 1 22.07.2027 -
Giuseppe Di Serio Spezia Aktiv 126 / 125 40% 3 14.07.2027 -
Ryan Oné Sheffield United Aktiv 112 / 116 40% 2 14.07.2027 -
Pejman Azmoun Gostaresh Foulad Aktiv 134 / 119 40% 2 11.07.2027 -
Davis Keillor-Dunn Wrexham Aktiv 118 / 124 40% 1 11.07.2027 -
Brayan Gil Baltika Aktiv 126 / 121 40% 2 03.07.2027 -
Prosper Obah Shakhtar Aktiv 125 / 123 40% 2 03.07.2027 -
Mateus Mide Porto Aktiv 98 / 106 40% 1 30.06.2027 -
Karim Hosseini Rah Ahan Aktiv 115 / 111 40% 2 28.06.2027 -
Jérémy Le Douaron Palermo Aktiv 129 / 123 40% 3 28.06.2027 -
Edoardo Soleri Sampdoria Aktiv 117 / 125 40% 2 28.06.2027 -
Armstrong Oko-Flex Levski Aktiv 121 / 124 40% 5 23.06.2027 -
Billal Messaoudi JS Kabylie Aktiv 116 / 107 40% 1 23.06.2027 -
Lassina Traoré Shakhtar Aktiv 119 / 121 40% 2 21.06.2027 -
Ion Nicolăescu Maccabi Tel Aviv Aktiv 113 / 122 40% 2 20.06.2027 -
Sidiki Chérif Coventry City Aktiv 128 / 133 40% 1 20.06.2027 -
Everton Bala Levski Aktiv 129 / 118 40% 2 19.06.2027 -
Luca Moro Padova Aktiv 124 / 116 40% 1 14.06.2027 -
Iwan Morgan Grimsby Town Aktiv 111 / 116 40% 1 14.06.2027 -
Adam Idah Swansea City Aktiv 121 / 130 40% 1 07.06.2027 -
Egas Cacintura Akhmat Grozny Verloren 127 / 130 40% 2 31.01.2027 -
Renato Júnior Al Wasl Aktiv 125 / 122 40% 3 29.01.2027 -
Dardan Shabanhaxhaj Rubin Aktiv 115 / 117 40% 1 29.01.2027 -
Ioannis Pittas CSKA Sofia Verloren 122 / 129 40% 1 29.01.2027 -
Kyle Wootton Stockport County Verloren 119 / 120 40% 2 28.01.2027 -
Domagoj Drožđek Tractor Verloren 122 / 133 40% 2 28.01.2027 -
Samuel Kalu Botev Plovdiv Aktiv 119 / 116 40% 1 24.01.2027 -
Mattia Bortolussi Padova Aktiv 123 / 120 40% 1 18.01.2027 -
Giuseppe Sibilli Bari Aktiv 118 / 127 40% 1 18.01.2027 -
Aaron Collins Milton Keynes Dons Aktiv 117 / 118 40% 1 17.01.2027 -
Christian Kouamé CSKA Moscow Aktiv 129 / 131 40% 1 15.01.2027 -
Fiete Arp OB Aktiv 123 / 127 40% 1 25.08.2026 -
Alex Valera Universitario Aktiv 135 / 120 40% 1 18.08.2026 -
Julián Quiñones Al-Qadisiyah Aktiv 157 / 131 40% 1 18.08.2026 -
Tiago Dantas HNK Rijeka Aktiv 124 / 120 40% 1 08.08.2026 -
Carlos Álvarez Levante Aktiv 144 / 149 40% 1 01.08.2026 -
Martín Ojeda Orlando City Aktiv 134 / 148 40% 1 01.08.2026 -